Latest Weather Observations for Point Wilson

IDV60801

Issued at 3:03 am EDT Monday 23 January 2017 (issued every 30 minutes, with the page automatically refreshed every 10 minutes)

About weather observations | Map of weather stations | Latest weather observations for VIC | Other Formats
Station Details ID: 087166 Name: POINT WILSON Lat: -38.10 Lon: 144.54 Height: 18.0 m
Data from the previous 72 hours. | See also: Recent months for locations in Victoria
Date/Time
EDT
Temp
°C
App
Temp
°C
Dew
Point
°C
Rel
Hum
%
Delta-T
°C
Wind Press
QNH
hPa
Press
MSL
hPa
Rain since
9am
mm
Dir  Spd
km/h
Gust
km/h
Spd
kts
Gust
kts
23/03:00am - - - - - CALM 0 0 0 0 - - -
23/02:30am - - - - - CALM 0 0 0 0 - - -
23/02:00am - - - - - CALM 0 0 0 0 - - -
23/01:30am - - - - - CALM 0 0 0 0 - - -
23/01:00am - - - - - SSW 6 7 3 4 - - -
23/12:30am - - - - - S 13 15 7 8 - - -
23/12:00am - - - - - S 13 15 7 8 - - -
 
Date/Time
EDT
Temp
°C
App
Temp
°C
Dew
Point
°C
Rel
Hum
%
Delta-T
°C
Wind Press
QNH
hPa
Press
MSL
hPa
Rain since
9am
mm
Dir  Spd
km/h
Gust
km/h
Spd
kts
Gust
kts
22/11:30pm - - - - - S 13 17 7 9 - - -
22/11:00pm - - - - - S 13 17 7 9 - - -
22/10:30pm - - - - - SSW 15 17 8 9 - - -
22/10:00pm - - - - - SSW 17 19 9 10 - - -
22/09:30pm - - - - - SW 19 20 10 11 - - -
22/09:00pm - - - - - SW 13 19 7 10 - - -
22/08:30pm - - - - - SSE 11 15 6 8 - - -
22/08:00pm - - - - - SSE 13 15 7 8 - - -
22/07:30pm - - - - - SE 17 19 9 10 - - -
22/07:00pm - - - - - SSE 20 24 11 13 - - -
22/06:30pm - - - - - S 26 28 14 15 - - -
22/06:00pm - - - - - SSE 26 30 14 16 - - -
22/05:30pm - - - - - S 26 30 14 16 - - -
22/05:00pm - - - - - SSE 22 24 12 13 - - -
22/04:30pm - - - - - S 24 28 13 15 - - -
22/04:00pm - - - - - SE 9 13 5 7 - - -
22/03:30pm - - - - - ENE 11 13 6 7 - - -
22/03:00pm - - - - - ENE 13 15 7 8 - - -
22/02:30pm - - - - - NE 20 22 11 12 - - -
22/02:00pm - - - - - NE 20 22 11 12 - - -
22/01:30pm - - - - - ENE 19 22 10 12 - - -
22/01:00pm - - - - - ENE 17 20 9 11 - - -
22/12:30pm - - - - - ENE 15 19 8 10 - - -
22/12:00pm - - - - - ENE 17 22 9 12 - - -
22/11:30am - - - - - NE 20 24 11 13 - - -
22/11:00am - - - - - NE 19 22 10 12 - - -
22/10:30am - - - - - NE 19 20 10 11 - - -
22/10:00am - - - - - NE 13 17 7 9 - - -
22/09:30am - - - - - NE 9 13 5 7 - - -
22/09:00am - - - - - NNE 9 11 5 6 - - -
22/08:30am - - - - - N 9 13 5 7 - - -
22/08:00am - - - - - NE 13 20 7 11 - - -
22/07:30am - - - - - ESE 11 15 6 8 - - -
22/07:00am - - - - - ESE 11 13 6 7 - - -
22/06:30am - - - - - ESE 13 15 7 8 - - -
22/06:00am - - - - - SE 9 13 5 7 - - -
22/05:30am - - - - - SE 11 13 6 7 - - -
22/05:00am - - - - - SE 11 13 6 7 - - -
22/04:30am - - - - - ESE 13 17 7 9 - - -
22/04:00am - - - - - SE 13 19 7 10 - - -
22/03:30am - - - - - SE 13 17 7 9 - - -
22/03:00am - - - - - SSE 15 17 8 9 - - -
22/02:30am - - - - - SSE 15 17 8 9 - - -
22/02:00am - - - - - SSE 13 17 7 9 - - -
22/01:30am - - - - - SSE 13 17 7 9 - - -
22/01:00am - - - - - SSE 15 17 8 9 - - -
22/12:30am - - - - - SSE 17 19 9 10 - - -
22/12:00am - - - - - SSE 17 19 9 10 - - -
 
Date/Time
EDT
Temp
°C
App
Temp
°C
Dew
Point
°C
Rel
Hum
%
Delta-T
°C
Wind Press
QNH
hPa
Press
MSL
hPa
Rain since
9am
mm
Dir  Spd
km/h
Gust
km/h
Spd
kts
Gust
kts
21/11:30pm - - - - - SSE 17 19 9 10 - - -
21/11:00pm - - - - - SSE 17 20 9 11 - - -
21/10:30pm - - - - - SSE 19 20 10 11 - - -
21/10:00pm - - - - - SSE 19 24 10 13 - - -
21/09:30pm - - - - - SSE 19 24 10 13 - - -
21/09:00pm - - - - - SSE 20 24 11 13 - - -
21/08:30pm - - - - - SSE 19 24 10 13 - - -
21/08:00pm - - - - - S 22 26 12 14 - - -
21/07:30pm - - - - - S 22 26 12 14 - - -
21/07:00pm - - - - - S 22 26 12 14 - - -
21/06:30pm - - - - - S 22 26 12 14 - - -
21/06:00pm - - - - - S 22 30 12 16 - - -
21/05:30pm - - - - - S 19 26 10 14 - - -
21/05:00pm - - - - - S 17 20 9 11 - - -
21/04:30pm - - - - - S 13 19 7 10 - - -
21/04:00pm - - - - - S 17 20 9 11 - - -
21/03:30pm - - - - - S 17 24 9 13 - - -
21/03:00pm - - - - - S 13 19 7 10 - - -
21/02:30pm - - - - - S 15 22 8 12 - - -
21/02:00pm - - - - - SSE 13 20 7 11 - - -
21/01:30pm - - - - - SE 7 13 4 7 - - -
21/01:00pm - - - - - WNW 2 7 1 4 - - -
21/12:30pm - - - - - NNE 2 9 1 5 - - -
21/12:00pm - - - - - WSW 2 6 1 3 - - -
21/11:30am - - - - - SW 9 15 5 8 - - -
21/11:00am - - - - - SW 13 15 7 8 - - -
21/10:30am - - - - - SW 19 22 10 12 - - -
21/10:00am - - - - - SW 17 20 9 11 - - -
21/09:30am - - - - - WSW 17 24 9 13 - - -
21/09:00am - - - - - WSW 19 24 10 13 - - -
21/08:30am - - - - - WSW 20 24 11 13 - - -
21/08:00am - - - - - WSW 20 26 11 14 - - -
21/07:30am - - - - - W 24 28 13 15 - - -
21/07:00am - - - - - WSW 24 30 13 16 - - -
21/06:30am - - - - - WSW 24 28 13 15 - - -
21/06:00am - - - - - W 20 28 11 15 - - -
21/05:30am - - - - - WSW 20 26 11 14 - - -
21/05:00am - - - - - WSW 22 28 12 15 - - -
21/04:30am - - - - - WSW 20 24 11 13 - - -
21/04:00am - - - - - WSW 19 24 10 13 - - -
21/03:30am - - - - - SW 19 24 10 13 - - -
21/03:00am - - - - - SSW 22 30 12 16 - - -
21/02:30am - - - - - SSW 28 35 15 19 - - -
21/02:00am - - - - - SSW 20 28 11 15 - - -
21/01:30am - - - - - SSW 24 30 13 16 - - -
21/01:00am - - - - - SSW 33 39 18 21 - - -
21/12:30am - - - - - SSW 32 41 17 22 - - -
21/12:00am - - - - - SSW 32 41 17 22 - - -
 
Date/Time
EDT
Temp
°C
App
Temp
°C
Dew
Point
°C
Rel
Hum
%
Delta-T
°C
Wind Press
QNH
hPa
Press
MSL
hPa
Rain since
9am
mm
Dir  Spd
km/h
Gust
km/h
Spd
kts
Gust
kts
20/11:30pm - - - - - SSW 32 39 17 21 - - -
20/11:00pm - - - - - SSW 28 35 15 19 - - -
20/10:30pm - - - - - SSW 33 44 18 24 - - -
20/10:00pm - - - - - SSW 35 41 19 22 - - -
20/09:30pm - - - - - SW 35 43 19 23 - - -
20/09:00pm - - - - - SW 39 50 21 27 - - -
20/08:30pm - - - - - SW 37 46 20 25 - - -
20/08:00pm - - - - - SW 44 54 24 29 - - -
20/07:30pm - - - - - SW 46 56 25 30 - - -
20/07:00pm - - - - - SW 43 50 23 27 - - -
20/06:30pm - - - - - SSW 48 56 26 30 - - -
20/06:00pm - - - - - SSW 54 65 29 35 - - -
20/05:30pm - - - - - SSW 52 61 28 33 - - -
20/05:00pm - - - - - SSW 57 65 31 35 - - -
20/04:30pm - - - - - SW 54 65 29 35 - - -
20/04:00pm - - - - - SSW 56 63 30 34 - - -
20/03:30pm - - - - - SW 54 65 29 35 - - -
20/03:00pm - - - - - SW 50 57 27 31 - - -
20/02:30pm - - - - - SW 50 61 27 33 - - -
20/02:00pm - - - - - SW 46 61 25 33 - - -
20/01:51pm - - - - - SW 41 61 22 33 - - -
20/01:30pm - - - - - SW 35 46 19 25 - - -
20/01:00pm - - - - - SW 32 44 17 24 - - -
20/12:30pm - - - - - SW 39 43 21 23 - - -
20/12:00pm - - - - - SW 39 46 21 25 - - -
20/11:30am - - - - - SW 39 46 21 25 - - -
20/11:00am - - - - - SW 37 43 20 23 - - -
20/10:30am - - - - - WSW 39 46 21 25 - - -
20/10:00am - - - - - WSW 37 46 20 25 - - -
20/09:30am - - - - - WSW 37 48 20 26 - - -
20/09:00am - - - - - WSW 43 52 23 28 - - -
20/08:30am - - - - - W 35 52 19 28 - - -
20/08:26am - - - - - W 28 50 15 27 - - -
20/08:25am - - - - - W 26 43 14 23 - - -
20/08:00am - - - - - NW 20 24 11 13 - - -
20/07:30am - - - - - NNE 22 26 12 14 - - -
20/07:00am - - - - - N 24 35 13 19 - - -
20/06:30am - - - - - NNE 33 43 18 23 - - -
20/06:00am - - - - - NNE 41 44 22 24 - - -
20/05:30am - - - - - NE 39 46 21 25 - - -
20/05:00am - - - - - ENE 30 37 16 20 - - -
20/04:58am - - - - - ENE 28 35 15 19 - - -
20/04:30am - - - - - SSE 7 9 4 5 - - -
20/04:00am - - - - - SSW 17 20 9 11 - - -
20/03:30am - - - - - WSW 24 30 13 16 - - -

Other Formats:

Comma delimited format used in spreadsheet applications
http://www.bom.gov.au/fwo/IDV60801/IDV60801.94847.axf

JavaScript Object Notation format (JSON) in row-major order
http://www.bom.gov.au/fwo/IDV60801/IDV60801.94847.json